createdAt,value
2018-10-07T00:02:27.051Z,93.90
2018-10-07T00:07:30.217Z,94.00
2018-10-07T00:12:33.423Z,93.80
2018-10-07T00:17:36.551Z,94.10
2018-10-07T00:22:39.642Z,94.00
2018-10-07T00:27:42.796Z,94.00
2018-10-07T00:32:45.960Z,93.90
2018-10-07T00:37:49.124Z,93.70
2018-10-07T00:42:52.253Z,93.70
2018-10-07T00:47:55.399Z,93.80
2018-10-07T00:52:58.563Z,93.90
2018-10-07T00:58:01.693Z,93.90
2018-10-07T01:03:04.888Z,94.20
2018-10-07T01:08:07.977Z,94.30
2018-10-07T01:13:11.187Z,94.10
2018-10-07T01:18:14.287Z,94.10
2018-10-07T01:23:17.473Z,94.10
2018-10-07T01:28:20.651Z,94.10
2018-10-07T01:33:23.785Z,94.10
2018-10-07T01:38:26.932Z,94.00
2018-10-07T01:43:30.124Z,94.10
2018-10-07T01:48:33.344Z,94.20
2018-10-07T01:53:36.520Z,94.70
2018-10-07T01:58:39.684Z,94.50
2018-10-07T02:03:42.815Z,94.50
2018-10-07T02:08:45.933Z,94.50
2018-10-07T02:13:49.082Z,94.50
2018-10-07T02:18:52.251Z,94.80
2018-10-07T02:23:55.413Z,94.80
2018-10-07T02:28:58.598Z,94.90
2018-10-07T02:34:04.520Z,95.00
2018-10-07T02:39:12.631Z,94.80
2018-10-07T02:44:17.799Z,94.90
2018-10-07T02:49:20.920Z,95.20
2018-10-07T02:54:24.881Z,95.00
2018-10-07T02:59:27.988Z,95.60
2018-10-07T03:04:31.218Z,95.20
2018-10-07T03:09:34.347Z,95.00
2018-10-07T03:14:37.497Z,94.90
2018-10-07T03:19:40.664Z,95.00
2018-10-07T03:24:43.823Z,95.00
2018-10-07T03:29:47.147Z,95.20
2018-10-07T03:34:50.351Z,95.30
2018-10-07T03:39:53.464Z,95.50
2018-10-07T03:44:56.646Z,95.40
2018-10-07T03:49:59.769Z,95.30
2018-10-07T03:55:02.907Z,95.20
2018-10-07T04:00:06.090Z,95.20
2018-10-07T04:05:09.221Z,95.40
2018-10-07T04:10:12.353Z,95.50
2018-10-07T04:15:15.486Z,95.40
2018-10-07T04:20:18.613Z,95.40
2018-10-07T04:25:21.748Z,95.40
2018-10-07T04:30:24.899Z,95.70
2018-10-07T04:35:28.055Z,96.50
2018-10-07T04:40:31.198Z,96.40
2018-10-07T04:45:34.377Z,96.00
2018-10-07T04:50:37.554Z,95.80
2018-10-07T04:55:40.756Z,95.90
2018-10-07T05:00:43.900Z,96.00
2018-10-07T05:05:47.410Z,96.10
2018-10-07T05:10:54.655Z,96.20
2018-10-07T05:16:07.229Z,95.90
2018-10-07T05:21:10.350Z,95.80
2018-10-07T05:26:13.399Z,96.00
2018-10-07T05:31:16.568Z,96.30
2018-10-07T05:36:19.933Z,96.50
2018-10-07T05:41:23.054Z,96.40
2018-10-07T05:46:26.161Z,96.30
2018-10-07T05:51:29.328Z,96.20
2018-10-07T05:56:32.544Z,96.30
2018-10-07T06:01:37.492Z,96.00
2018-10-07T06:06:40.692Z,96.00
2018-10-07T06:11:44.413Z,96.70
2018-10-07T06:16:47.621Z,96.30
2018-10-07T06:21:50.824Z,95.90
2018-10-07T06:26:54.232Z,95.20
2018-10-07T06:31:57.365Z,93.70
2018-10-07T06:37:00.506Z,92.40
2018-10-07T06:42:03.731Z,91.10
2018-10-07T06:47:07.018Z,90.10
2018-10-07T06:52:10.183Z,89.00
2018-10-07T06:57:13.367Z,87.20
2018-10-07T07:02:16.793Z,86.50
2018-10-07T07:07:19.916Z,86.30
2018-10-07T07:12:23.197Z,86.40
2018-10-07T07:17:26.310Z,86.20
2018-10-07T07:22:29.450Z,86.50
2018-10-07T07:27:32.662Z,86.10
2018-10-07T07:32:35.781Z,86.00
2018-10-07T07:37:39.088Z,85.60
2018-10-07T07:42:42.203Z,84.80
2018-10-07T07:47:45.380Z,84.70
2018-10-07T07:52:48.518Z,84.10
2018-10-07T07:57:51.652Z,83.40
2018-10-07T08:02:54.837Z,82.10
2018-10-07T08:07:57.946Z,81.50
2018-10-07T08:13:01.110Z,81.10
2018-10-07T08:18:04.272Z,80.90
2018-10-07T08:23:07.426Z,80.80
2018-10-07T08:28:10.588Z,80.60
2018-10-07T08:33:13.759Z,80.10
2018-10-07T08:38:16.916Z,79.20
2018-10-07T08:43:20.088Z,79.10
2018-10-07T08:48:23.303Z,78.70
2018-10-07T08:53:26.483Z,78.80
2018-10-07T08:58:29.574Z,78.80
2018-10-07T09:03:32.834Z,78.50
2018-10-07T09:08:35.943Z,78.90
2018-10-07T09:13:39.105Z,78.90
2018-10-07T09:18:42.270Z,78.50
2018-10-07T09:23:45.464Z,78.80
2018-10-07T09:28:48.632Z,78.00
2018-10-07T09:33:51.821Z,77.00
2018-10-07T09:38:54.970Z,76.30
2018-10-07T09:43:58.100Z,74.30
2018-10-07T09:49:01.258Z,71.10
2018-10-07T09:54:04.448Z,70.60
2018-10-07T09:59:07.618Z,72.40
2018-10-07T10:04:10.841Z,73.70
2018-10-07T10:09:13.872Z,74.20
2018-10-07T10:14:17.026Z,71.00
2018-10-07T10:19:57.111Z,67.20
2018-10-07T10:25:39.206Z,64.70
2018-10-07T10:31:08.536Z,63.20
2018-10-07T10:36:41.234Z,63.00
2018-10-07T10:42:07.352Z,66.50
2018-10-07T10:47:26.495Z,67.20
2018-10-07T10:52:44.000Z,66.70
2018-10-07T10:57:49.443Z,65.70
2018-10-07T11:03:32.087Z,65.40
2018-10-07T11:09:04.053Z,66.00
2018-10-07T11:14:35.837Z,65.30
2018-10-07T11:19:59.176Z,63.30
2018-10-07T11:25:40.756Z,62.60
2018-10-07T11:31:02.913Z,64.90
2018-10-07T11:36:59.900Z,65.90
2018-10-07T11:42:07.361Z,68.30
2018-10-07T11:47:51.156Z,69.90
2018-10-07T11:53:12.402Z,69.10
2018-10-07T11:58:15.550Z,67.70
2018-10-07T12:03:18.756Z,66.40
2018-10-07T12:08:22.056Z,65.20
2018-10-07T12:13:25.194Z,64.40
2018-10-07T12:18:28.374Z,65.90
2018-10-07T12:23:31.520Z,66.00
2018-10-07T12:28:34.585Z,64.80
2018-10-07T12:33:38.115Z,64.90
2018-10-07T12:38:41.252Z,62.90
2018-10-07T12:43:44.400Z,62.20
2018-10-07T12:48:47.611Z,64.40
2018-10-07T12:53:50.718Z,65.40
2018-10-07T12:58:53.896Z,66.90
2018-10-07T13:03:57.049Z,68.40
2018-10-07T13:09:00.208Z,69.40
2018-10-07T13:14:03.686Z,70.00
2018-10-07T13:19:06.884Z,70.90
2018-10-07T13:24:10.068Z,71.20
2018-10-07T13:29:13.357Z,72.30
2018-10-07T13:34:16.506Z,72.90
2018-10-07T13:39:19.624Z,73.80
2018-10-07T13:44:22.829Z,74.10
2018-10-07T13:49:25.931Z,75.50
2018-10-07T13:54:29.126Z,75.60
2018-10-07T13:59:32.283Z,76.50
2018-10-07T14:04:35.402Z,77.50
2018-10-07T14:09:38.592Z,78.30
2018-10-07T14:14:41.752Z,78.40
2018-10-07T14:19:44.858Z,78.20
2018-10-07T14:24:48.077Z,78.30
2018-10-07T14:29:51.318Z,78.40
2018-10-07T14:34:54.429Z,78.90
2018-10-07T14:39:57.633Z,78.40
2018-10-07T14:45:00.786Z,78.10
2018-10-07T14:50:04.077Z,78.00
2018-10-07T14:55:07.355Z,78.50
2018-10-07T15:00:10.495Z,77.70
2018-10-07T15:05:13.637Z,77.60
2018-10-07T15:10:16.772Z,77.50
2018-10-07T15:15:20.740Z,77.60
2018-10-07T15:20:23.923Z,77.30
2018-10-07T15:25:27.097Z,76.50
2018-10-07T15:30:30.233Z,77.00
2018-10-07T15:35:33.398Z,77.10
2018-10-07T15:40:36.523Z,76.70
2018-10-07T15:45:39.670Z,77.10
2018-10-07T15:50:42.832Z,77.10
2018-10-07T15:55:45.946Z,78.70
2018-10-07T16:00:49.085Z,77.20
2018-10-07T16:05:52.254Z,79.80
2018-10-07T16:10:55.405Z,79.60
2018-10-07T16:16:01.243Z,81.20
2018-10-07T16:21:04.346Z,80.90
2018-10-07T16:26:07.729Z,81.20
2018-10-07T16:31:10.856Z,82.20
2018-10-07T16:36:13.975Z,82.00
2018-10-07T16:41:17.125Z,83.20
2018-10-07T16:46:20.291Z,82.20
2018-10-07T16:51:23.429Z,82.50
2018-10-07T16:56:26.589Z,81.70
2018-10-07T17:01:30.154Z,81.70
2018-10-07T17:06:38.583Z,82.20
2018-10-07T17:11:41.772Z,80.70
2018-10-07T17:16:48.967Z,80.70
2018-10-07T17:21:54.095Z,80.30
2018-10-07T17:26:56.134Z,80.10
2018-10-07T17:31:59.282Z,80.10
2018-10-07T17:37:02.448Z,80.10
2018-10-07T17:42:05.646Z,80.00
2018-10-07T17:47:08.836Z,81.10
2018-10-07T17:52:11.928Z,80.00
2018-10-07T17:57:15.160Z,80.20
2018-10-07T18:02:18.279Z,80.00
2018-10-07T18:07:21.505Z,79.70
2018-10-07T18:12:24.613Z,80.20
2018-10-07T18:17:27.772Z,80.60
2018-10-07T18:22:31.263Z,80.40
2018-10-07T18:27:34.415Z,80.20
2018-10-07T18:32:37.680Z,80.80
2018-10-07T18:37:40.800Z,81.10
2018-10-07T18:42:43.962Z,81.50
2018-10-07T18:47:47.199Z,82.20
2018-10-07T18:52:50.328Z,83.10
2018-10-07T18:57:53.612Z,83.80
2018-10-07T19:02:57.214Z,84.30
2018-10-07T19:08:00.252Z,84.80
2018-10-07T19:13:03.489Z,85.60
2018-10-07T19:18:06.959Z,85.60
2018-10-07T19:23:10.134Z,85.90
2018-10-07T19:28:13.303Z,85.70
2018-10-07T19:33:16.439Z,86.10
2018-10-07T19:38:19.683Z,85.90
2018-10-07T19:43:22.872Z,86.10
2018-10-07T19:48:26.049Z,86.10
2018-10-07T19:53:29.298Z,86.10
2018-10-07T19:58:32.517Z,86.10
2018-10-07T20:03:35.633Z,86.60
2018-10-07T20:08:38.933Z,86.60
2018-10-07T20:13:42.368Z,86.40
2018-10-07T20:18:45.565Z,86.60
2018-10-07T20:23:48.795Z,86.40
2018-10-07T20:28:52.047Z,86.20
2018-10-07T20:33:55.661Z,86.20
2018-10-07T20:38:58.788Z,86.20
2018-10-07T20:44:03.257Z,86.30
2018-10-07T20:49:06.509Z,86.40
2018-10-07T20:54:09.715Z,86.80
2018-10-07T20:59:12.904Z,86.90
2018-10-07T21:04:16.251Z,87.20
2018-10-07T21:09:19.398Z,87.00
2018-10-07T21:14:22.593Z,87.20
2018-10-07T21:19:25.808Z,87.90
2018-10-07T21:24:29.002Z,88.00
2018-10-07T21:29:32.169Z,88.30
2018-10-07T21:34:35.299Z,88.70
2018-10-07T21:39:38.468Z,88.40
2018-10-07T21:44:41.655Z,88.20
2018-10-07T21:49:44.805Z,88.20
2018-10-07T21:54:47.945Z,88.10
2018-10-07T21:59:51.163Z,88.10
2018-10-07T22:04:54.256Z,88.00
2018-10-07T22:09:57.402Z,87.50
2018-10-07T22:15:00.560Z,87.80
2018-10-07T22:20:03.808Z,87.80
2018-10-07T22:25:06.938Z,87.70
2018-10-07T22:30:10.081Z,88.00
2018-10-07T22:35:13.238Z,87.70
2018-10-07T22:40:16.410Z,88.00
2018-10-07T22:45:19.529Z,88.50
2018-10-07T22:50:22.701Z,88.90
2018-10-07T22:55:25.906Z,89.10
2018-10-07T23:00:29.118Z,89.40
2018-10-07T23:05:32.248Z,89.60
2018-10-07T23:10:35.370Z,89.80
2018-10-07T23:15:38.598Z,90.00
2018-10-07T23:20:41.797Z,90.00
2018-10-07T23:25:44.958Z,90.10
2018-10-07T23:30:48.115Z,90.30
2018-10-07T23:35:51.329Z,90.50
2018-10-07T23:40:55.674Z,90.70
2018-10-07T23:45:58.824Z,90.80
2018-10-07T23:51:02.017Z,91.00
2018-10-07T23:56:05.676Z,91.10
